createdAt,value
2018-10-21T00:00:07.874Z,7.40
2018-10-21T00:02:37.492Z,9.03
2018-10-21T00:05:09.410Z,8.77
2018-10-21T00:07:39.201Z,4.93
2018-10-21T00:10:10.182Z,4.73
2018-10-21T00:12:40.178Z,4.70
2018-10-21T00:15:10.715Z,5.83
2018-10-21T00:17:40.339Z,5.70
2018-10-21T00:20:09.949Z,5.47
2018-10-21T00:22:39.564Z,5.20
2018-10-21T00:25:09.221Z,5.23
2018-10-21T00:27:38.897Z,5.30
2018-10-21T00:30:08.753Z,5.20
2018-10-21T00:32:43.667Z,6.10
2018-10-21T00:35:13.315Z,7.77
2018-10-21T00:37:43.138Z,5.00
2018-10-21T00:40:12.843Z,5.90
2018-10-21T00:42:42.506Z,5.67
2018-10-21T00:45:12.355Z,4.93
2018-10-21T00:47:42.002Z,5.43
2018-10-21T00:50:12.083Z,5.63
2018-10-21T00:52:41.701Z,7.17
2018-10-21T00:55:11.970Z,5.87
2018-10-21T00:57:41.695Z,5.17
2018-10-21T01:00:13.066Z,7.43
2018-10-21T01:02:42.715Z,6.80
2018-10-21T01:05:12.408Z,11.67
2018-10-21T01:07:42.062Z,8.67
2018-10-21T01:10:12.561Z,7.40
2018-10-21T01:12:42.383Z,12.03
2018-10-21T01:15:13.165Z,9.80
2018-10-21T01:17:42.766Z,6.40
2018-10-21T01:20:13.240Z,13.30
2018-10-21T01:22:43.133Z,19.70
2018-10-21T01:25:12.818Z,10.77
2018-10-21T01:27:42.936Z,12.47
2018-10-21T01:30:13.364Z,9.43
2018-10-21T01:32:42.959Z,7.93
2018-10-21T01:35:12.645Z,8.43
2018-10-21T01:37:42.355Z,11.23
2018-10-21T01:40:34.729Z,7.80
2018-10-21T01:43:04.848Z,4.37
2018-10-21T01:45:34.722Z,4.73
2018-10-21T01:48:05.589Z,9.47
2018-10-21T01:50:35.228Z,9.63
2018-10-21T01:53:06.031Z,6.63
2018-10-21T01:55:35.705Z,7.40
2018-10-21T01:58:05.688Z,7.57
2018-10-21T02:00:35.774Z,5.70
2018-10-21T02:03:05.763Z,4.53
2018-10-21T02:05:35.947Z,5.13
2018-10-21T02:08:05.848Z,4.17
2018-10-21T02:10:35.505Z,11.20
2018-10-21T02:13:05.212Z,5.23
2018-10-21T02:15:34.845Z,6.10
2018-10-21T02:18:04.546Z,18.97
2018-10-21T02:20:34.206Z,16.23
2018-10-21T02:23:03.859Z,29.83
2018-10-21T02:25:33.475Z,36.40
2018-10-21T02:28:03.152Z,21.33
2018-10-21T02:30:32.810Z,12.73
2018-10-21T02:33:02.775Z,10.77
2018-10-21T02:35:32.459Z,11.30
2018-10-21T02:38:02.097Z,8.33
2018-10-21T02:41:40.804Z,3.83
2018-10-21T02:44:19.871Z,3.80
2018-10-21T02:46:50.561Z,4.10
2018-10-21T02:49:20.648Z,6.57
2018-10-21T02:51:55.514Z,5.43
2018-10-21T02:54:28.139Z,6.97
2018-10-21T02:56:57.864Z,6.83
2018-10-21T02:59:27.794Z,6.67
2018-10-21T03:01:57.516Z,3.57
2018-10-21T03:04:27.191Z,4.73
2018-10-21T03:06:56.829Z,4.60
2018-10-21T03:09:26.877Z,4.70
2018-10-21T03:11:56.565Z,5.07
2018-10-21T03:14:26.252Z,7.67
2018-10-21T03:16:55.977Z,4.20
2018-10-21T03:19:25.601Z,6.27
2018-10-21T03:21:55.209Z,4.53
2018-10-21T03:24:24.857Z,6.60
2018-10-21T03:26:54.515Z,5.20
2018-10-21T03:29:24.189Z,11.33
2018-10-21T03:31:53.826Z,9.60
2018-10-21T03:34:23.459Z,9.13
2018-10-21T03:36:53.098Z,4.70
2018-10-21T03:39:22.716Z,4.23
2018-10-21T03:41:52.380Z,4.13
2018-10-21T03:44:22.024Z,7.27
2018-10-21T03:46:51.730Z,3.90
2018-10-21T03:49:21.343Z,4.33
2018-10-21T03:51:51.016Z,5.87
2018-10-21T03:54:20.618Z,4.70
2018-10-21T03:56:50.266Z,11.37
2018-10-21T03:59:19.897Z,5.63
2018-10-21T04:01:49.582Z,7.20
2018-10-21T04:04:19.219Z,4.27
2018-10-21T04:06:48.909Z,8.67
2018-10-21T04:09:18.537Z,5.23
2018-10-21T04:11:48.170Z,7.87
2018-10-21T04:14:17.880Z,5.73
2018-10-21T04:16:47.532Z,6.20
2018-10-21T04:19:17.158Z,4.23
2018-10-21T04:21:46.838Z,5.27
2018-10-21T04:24:16.475Z,3.83
2018-10-21T04:26:46.126Z,5.97
2018-10-21T04:29:15.729Z,5.77
2018-10-21T04:31:45.356Z,4.97
2018-10-21T04:34:15.073Z,4.90
2018-10-21T04:36:44.744Z,4.57
2018-10-21T04:39:26.146Z,7.43
2018-10-21T04:41:55.968Z,5.83
2018-10-21T04:44:25.680Z,5.80
2018-10-21T04:46:55.411Z,5.57
2018-10-21T04:49:25.055Z,6.33
2018-10-21T04:51:54.691Z,4.60
2018-10-21T04:54:24.318Z,6.40
2018-10-21T04:56:53.960Z,6.60
2018-10-21T04:59:23.617Z,4.87
2018-10-21T05:01:53.317Z,7.30
2018-10-21T05:04:22.920Z,6.77
2018-10-21T05:06:52.674Z,4.70
2018-10-21T05:09:22.918Z,7.07
2018-10-21T05:11:52.565Z,19.77
2018-10-21T05:14:22.165Z,14.43
2018-10-21T05:16:51.843Z,15.70
2018-10-21T05:19:21.739Z,13.13
2018-10-21T05:21:51.564Z,13.27
2018-10-21T05:24:21.171Z,9.43
2018-10-21T05:26:50.784Z,10.77
2018-10-21T05:29:20.414Z,10.97
2018-10-21T05:31:51.032Z,21.00
2018-10-21T05:34:20.701Z,39.87
2018-10-21T05:36:50.343Z,11.60
2018-10-21T05:39:19.981Z,14.20
2018-10-21T05:41:49.621Z,27.73
2018-10-21T05:44:19.248Z,11.00
2018-10-21T05:46:50.188Z,12.87
2018-10-21T05:49:19.863Z,15.50
2018-10-21T05:51:50.770Z,23.47
2018-10-21T05:54:20.868Z,17.97
2018-10-21T05:56:51.494Z,21.47
2018-10-21T05:59:21.165Z,14.40
2018-10-21T06:01:50.772Z,8.50
2018-10-21T06:04:20.364Z,17.67
2018-10-21T06:06:49.986Z,9.10
2018-10-21T06:09:19.602Z,10.40
2018-10-21T06:11:49.242Z,13.87
2018-10-21T06:14:18.912Z,24.57
2018-10-21T06:17:51.920Z,9.70
2018-10-21T06:20:25.035Z,7.73
2018-10-21T06:22:54.762Z,6.90
2018-10-21T06:25:24.503Z,14.27
2018-10-21T06:27:54.166Z,29.07
2018-10-21T06:30:23.824Z,11.00
2018-10-21T06:32:53.520Z,16.57
2018-10-21T06:35:23.152Z,13.17
2018-10-21T06:37:52.846Z,10.60
2018-10-21T06:40:22.528Z,13.77
2018-10-21T06:42:52.127Z,10.40
2018-10-21T06:45:21.847Z,9.13
2018-10-21T06:47:51.399Z,13.03
2018-10-21T06:50:21.668Z,9.33
2018-10-21T06:52:51.326Z,10.83
2018-10-21T06:55:20.936Z,8.40
2018-10-21T06:57:50.564Z,11.40
2018-10-21T07:00:20.186Z,14.20
2018-10-21T07:02:49.817Z,10.97
2018-10-21T07:05:30.505Z,13.73
2018-10-21T07:08:00.143Z,24.23
2018-10-21T07:10:29.787Z,17.30
2018-10-21T07:12:59.490Z,40.87
2018-10-21T07:15:29.213Z,16.73
2018-10-21T07:17:58.832Z,16.67
2018-10-21T07:20:28.441Z,14.33
2018-10-21T07:22:58.088Z,12.80
2018-10-21T07:25:27.731Z,9.20
2018-10-21T07:27:57.407Z,11.20
2018-10-21T07:30:27.009Z,9.17
2018-10-21T07:32:56.615Z,10.10
2018-10-21T07:35:26.218Z,7.27
2018-10-21T07:37:55.989Z,8.87
2018-10-21T07:40:25.624Z,10.03
2018-10-21T07:42:55.271Z,9.00
2018-10-21T07:45:24.855Z,7.70
2018-10-21T07:47:54.453Z,20.17
2018-10-21T07:50:24.109Z,14.23
2018-10-21T07:52:53.786Z,30.07
2018-10-21T07:55:23.534Z,23.23
2018-10-21T07:57:53.138Z,22.67
2018-10-21T08:00:22.800Z,17.00
2018-10-21T08:02:52.391Z,15.47
2018-10-21T08:05:32.947Z,11.33
2018-10-21T08:08:20.096Z,6.80
2018-10-21T08:10:49.757Z,6.57
2018-10-21T08:13:20.754Z,80.00
2018-10-21T08:15:50.563Z,319.67
2018-10-21T08:18:20.203Z,129.53
2018-10-21T08:20:50.658Z,53.73
2018-10-21T08:23:20.571Z,27.90
2018-10-21T08:25:51.018Z,26.70
2018-10-21T08:28:20.713Z,84.63
2018-10-21T08:30:50.367Z,22.50
2018-10-21T08:33:19.980Z,19.13
2018-10-21T08:35:49.605Z,12.80
2018-10-21T08:38:19.265Z,16.43
2018-10-21T08:40:48.879Z,11.60
2018-10-21T08:43:18.604Z,13.43
2018-10-21T08:45:48.307Z,18.23
2018-10-21T08:48:17.962Z,16.93
2018-10-21T08:50:47.558Z,10.77
2018-10-21T08:53:17.169Z,11.30
2018-10-21T08:55:46.863Z,6.57
2018-10-21T08:58:16.559Z,7.23
2018-10-21T09:00:46.232Z,9.97
2018-10-21T09:03:15.844Z,35.13
2018-10-21T09:05:45.496Z,15.47
2018-10-21T09:08:15.125Z,35.87
2018-10-21T09:10:44.870Z,18.27
2018-10-21T09:13:14.446Z,7.97
2018-10-21T09:15:44.113Z,5.43
2018-10-21T09:18:13.727Z,5.10
2018-10-21T09:20:43.354Z,4.77
2018-10-21T09:23:13.004Z,6.97
2018-10-21T09:25:42.654Z,6.37
2018-10-21T09:28:12.490Z,8.60
2018-10-21T09:30:42.097Z,10.53
2018-10-21T09:33:11.739Z,20.70
2018-10-21T09:35:41.373Z,11.27
2018-10-21T09:38:11.071Z,9.80
2018-10-21T09:40:40.755Z,10.23
2018-10-21T09:43:10.469Z,32.90
2018-10-21T09:45:40.087Z,146.43
2018-10-21T09:48:09.711Z,204.43
2018-10-21T09:50:39.425Z,16.37
2018-10-21T09:53:09.282Z,8.60
2018-10-21T09:55:38.975Z,12.47
2018-10-21T09:58:08.630Z,9.30
2018-10-21T10:00:43.330Z,24.80
2018-10-21T10:03:13.032Z,9.70
2018-10-21T10:05:42.699Z,7.87
2018-10-21T10:08:12.330Z,8.47
2018-10-21T10:10:41.916Z,8.53
2018-10-21T10:13:11.626Z,8.90
2018-10-21T10:15:41.236Z,7.53
2018-10-21T10:18:10.877Z,6.33
2018-10-21T10:20:40.490Z,10.60
2018-10-21T10:23:10.153Z,10.83
2018-10-21T10:25:39.762Z,8.87
2018-10-21T10:28:09.438Z,23.00
2018-10-21T10:30:39.127Z,19.37
2018-10-21T10:33:08.836Z,27.30
2018-10-21T10:35:38.459Z,10.33
2018-10-21T10:38:08.109Z,78.33
2018-10-21T10:40:37.772Z,60.40
2018-10-21T10:43:07.423Z,15.90
2018-10-21T10:45:37.091Z,11.70
2018-10-21T10:48:06.752Z,10.67
2018-10-21T10:50:36.423Z,10.97
2018-10-21T10:53:06.322Z,16.20
2018-10-21T10:55:41.139Z,11.10
2018-10-21T10:58:10.950Z,23.30
2018-10-21T11:00:40.555Z,41.73
2018-10-21T11:03:10.197Z,13.67
2018-10-21T11:05:39.919Z,24.10
2018-10-21T11:08:09.708Z,17.93
2018-10-21T11:10:39.550Z,19.77
2018-10-21T11:13:09.223Z,15.57
2018-10-21T11:15:38.902Z,23.27
2018-10-21T11:18:08.555Z,12.63
2018-10-21T11:20:38.224Z,10.87
2018-10-21T11:23:08.016Z,13.73
2018-10-21T11:25:37.730Z,24.17
2018-10-21T11:28:07.461Z,20.27
2018-10-21T11:30:37.088Z,19.27
2018-10-21T11:33:07.036Z,11.37
2018-10-21T11:35:36.669Z,52.00
2018-10-21T11:38:06.476Z,11.13
2018-10-21T11:40:36.144Z,15.47
2018-10-21T11:43:06.020Z,9.17
2018-10-21T11:45:35.708Z,10.47
2018-10-21T11:48:05.572Z,9.43
2018-10-21T11:50:35.215Z,13.37
2018-10-21T11:53:04.872Z,19.20
2018-10-21T11:55:40.471Z,15.20
2018-10-21T11:58:11.743Z,15.20
2018-10-21T12:00:41.773Z,17.00
2018-10-21T12:03:12.078Z,19.20
2018-10-21T12:05:42.584Z,26.37
2018-10-21T12:08:12.618Z,20.03
2018-10-21T12:10:42.264Z,21.00
2018-10-21T12:13:11.950Z,20.43
2018-10-21T12:15:41.617Z,13.27
2018-10-21T12:18:11.266Z,20.03
2018-10-21T12:20:40.870Z,24.10
2018-10-21T12:23:10.668Z,18.63
2018-10-21T12:25:40.392Z,18.93
2018-10-21T12:28:10.177Z,22.60
2018-10-21T12:30:39.672Z,12.60
2018-10-21T12:33:09.294Z,30.30
2018-10-21T12:35:38.908Z,20.67
2018-10-21T12:38:08.561Z,25.13
2018-10-21T12:40:38.279Z,16.97
2018-10-21T12:43:08.055Z,12.53
2018-10-21T12:45:37.698Z,16.93
2018-10-21T12:48:07.419Z,9.77
2018-10-21T12:50:37.031Z,12.90
2018-10-21T12:53:06.811Z,7.67
2018-10-21T12:55:40.585Z,7.57
2018-10-21T12:58:10.382Z,8.07
2018-10-21T13:00:40.001Z,11.60
2018-10-21T13:03:09.631Z,11.73
2018-10-21T13:05:39.284Z,16.97
2018-10-21T13:08:09.010Z,14.30
2018-10-21T13:10:38.640Z,12.70
2018-10-21T13:13:08.418Z,11.57
2018-10-21T13:15:37.916Z,9.33
2018-10-21T13:18:07.599Z,24.83
2018-10-21T13:20:37.303Z,10.77
2018-10-21T13:23:06.922Z,16.13
2018-10-21T13:25:36.532Z,10.87
2018-10-21T13:28:06.427Z,9.00
2018-10-21T13:30:36.050Z,22.23
2018-10-21T13:33:05.829Z,7.33
2018-10-21T13:35:35.427Z,7.40
2018-10-21T13:38:05.074Z,10.47
2018-10-21T13:40:34.750Z,7.57
2018-10-21T13:43:04.813Z,8.73
2018-10-21T13:45:34.449Z,6.97
2018-10-21T13:48:04.154Z,7.53
2018-10-21T13:50:33.800Z,9.73
2018-10-21T13:53:03.510Z,12.00
2018-10-21T13:55:33.892Z,17.10
2018-10-21T13:58:03.636Z,15.07
2018-10-21T14:00:33.385Z,14.83
2018-10-21T14:03:03.010Z,19.30
2018-10-21T14:05:32.669Z,23.33
2018-10-21T14:08:02.434Z,19.80
2018-10-21T14:10:32.727Z,13.97
2018-10-21T14:13:02.378Z,15.87
2018-10-21T14:15:32.082Z,9.90
2018-10-21T14:18:01.728Z,6.70
2018-10-21T14:20:31.347Z,36.20
2018-10-21T14:23:00.954Z,17.07
2018-10-21T14:26:59.912Z,18.83
2018-10-21T14:29:29.552Z,8.63
2018-10-21T14:31:59.216Z,18.40
2018-10-21T14:34:28.870Z,24.03
2018-10-21T14:36:58.802Z,43.83
2018-10-21T14:39:28.419Z,72.87
2018-10-21T14:41:59.548Z,40.83
2018-10-21T14:44:33.220Z,35.93
2018-10-21T14:47:02.825Z,29.73
2018-10-21T14:49:32.446Z,36.17
2018-10-21T14:52:02.126Z,24.80
2018-10-21T14:54:31.777Z,12.63
2018-10-21T14:57:01.543Z,41.43
2018-10-21T14:59:31.246Z,42.07
2018-10-21T15:02:03.493Z,20.60
2018-10-21T15:04:35.267Z,23.97
2018-10-21T15:07:05.092Z,30.97
2018-10-21T15:09:34.760Z,18.63
2018-10-21T15:12:04.918Z,13.73
2018-10-21T15:14:34.609Z,10.40
2018-10-21T15:17:04.220Z,9.13
2018-10-21T15:19:33.849Z,14.77
2018-10-21T15:22:03.579Z,22.90
2018-10-21T15:24:33.312Z,32.43
2018-10-21T15:27:03.166Z,28.93
2018-10-21T15:29:32.769Z,22.20
2018-10-21T15:32:02.485Z,22.47
2018-10-21T15:34:32.185Z,23.83
2018-10-21T15:37:01.832Z,25.27
2018-10-21T15:39:31.508Z,33.53
2018-10-21T15:42:01.180Z,34.43
2018-10-21T15:44:30.818Z,42.90
2018-10-21T15:47:00.478Z,47.07
2018-10-21T15:49:30.174Z,60.43
2018-10-21T15:51:59.964Z,47.43
2018-10-21T15:54:29.544Z,41.37
2018-10-21T15:56:59.159Z,51.57
2018-10-21T15:59:28.772Z,49.37
2018-10-21T16:01:58.476Z,45.03
2018-10-21T16:04:28.180Z,51.33
2018-10-21T16:06:57.831Z,53.00
2018-10-21T16:09:27.484Z,89.30
2018-10-21T16:11:57.092Z,77.33
2018-10-21T16:14:26.787Z,110.13
2018-10-21T16:16:56.505Z,74.07
2018-10-21T16:19:26.153Z,84.20
2018-10-21T16:21:55.851Z,62.53
2018-10-21T16:24:25.472Z,57.10
2018-10-21T16:26:55.112Z,75.40
2018-10-21T16:29:24.893Z,70.43
2018-10-21T16:31:54.882Z,58.20
2018-10-21T16:34:24.501Z,45.60
2018-10-21T16:36:54.315Z,148.23
2018-10-21T16:39:23.911Z,94.73
2018-10-21T16:41:53.524Z,78.73
2018-10-21T16:44:23.153Z,41.37
2018-10-21T16:46:52.782Z,48.40
2018-10-21T16:49:22.561Z,146.00
2018-10-21T16:51:52.199Z,45.13
2018-10-21T16:54:21.975Z,35.67
2018-10-21T16:56:51.599Z,66.97
2018-10-21T16:59:21.324Z,43.73
2018-10-21T17:01:51.152Z,57.37
2018-10-21T17:04:20.805Z,90.40
2018-10-21T17:06:50.534Z,50.50
2018-10-21T17:09:20.299Z,46.03
2018-10-21T17:11:49.912Z,70.67
2018-10-21T17:14:19.599Z,74.30
2018-10-21T17:16:49.295Z,63.53
2018-10-21T17:19:19.019Z,52.67
2018-10-21T17:21:48.631Z,93.83
2018-10-21T17:24:18.342Z,98.37
2018-10-21T17:26:47.971Z,95.63
2018-10-21T17:29:17.624Z,66.50
2018-10-21T17:31:47.369Z,96.20
2018-10-21T17:34:17.115Z,53.67
2018-10-21T17:36:46.773Z,65.53
2018-10-21T17:39:16.425Z,57.50
2018-10-21T17:41:46.111Z,32.83
2018-10-21T17:44:15.724Z,49.40
2018-10-21T17:46:45.383Z,50.77
2018-10-21T17:49:15.032Z,48.87
2018-10-21T17:51:44.710Z,26.70
2018-10-21T17:54:14.504Z,31.47
2018-10-21T17:56:49.385Z,25.67
2018-10-21T17:59:19.074Z,31.67
2018-10-21T18:01:56.080Z,37.33
2018-10-21T18:04:27.597Z,45.80
2018-10-21T18:06:57.252Z,28.57
2018-10-21T18:09:26.883Z,45.63
2018-10-21T18:11:56.532Z,34.30
2018-10-21T18:14:26.204Z,31.27
2018-10-21T18:16:55.981Z,25.40
2018-10-21T18:19:25.599Z,29.10
2018-10-21T18:21:55.343Z,24.40
2018-10-21T18:24:24.993Z,30.23
2018-10-21T18:26:54.690Z,30.53
2018-10-21T18:29:24.351Z,28.67
2018-10-21T18:31:54.150Z,29.93
2018-10-21T18:34:23.833Z,30.90
2018-10-21T18:36:53.486Z,30.33
2018-10-21T18:39:23.182Z,35.00
2018-10-21T18:41:52.805Z,38.73
2018-10-21T18:44:22.450Z,32.50
2018-10-21T18:46:52.052Z,32.00
2018-10-21T18:49:21.683Z,25.87
2018-10-21T18:51:51.395Z,28.00
2018-10-21T18:54:21.075Z,33.03
2018-10-21T18:56:50.754Z,28.90
2018-10-21T18:59:20.397Z,30.47
2018-10-21T19:01:50.028Z,29.87
2018-10-21T19:04:19.657Z,24.90
2018-10-21T19:06:49.305Z,27.43
2018-10-21T19:09:18.980Z,24.47
2018-10-21T19:11:48.628Z,23.03
2018-10-21T19:14:18.275Z,22.73
2018-10-21T19:16:47.911Z,26.43
2018-10-21T19:19:17.603Z,24.67
2018-10-21T19:21:47.236Z,24.53
2018-10-21T19:24:16.854Z,25.17
2018-10-21T19:26:46.487Z,24.20
2018-10-21T19:29:16.113Z,69.50
2018-10-21T19:31:45.745Z,187.00
2018-10-21T19:34:15.474Z,180.00
2018-10-21T19:36:45.092Z,88.27
2018-10-21T19:39:14.762Z,38.27
2018-10-21T19:41:44.421Z,38.60
2018-10-21T19:44:14.093Z,48.63
2018-10-21T19:46:43.712Z,43.20
2018-10-21T19:49:13.471Z,26.07
2018-10-21T19:51:43.105Z,26.10
2018-10-21T19:54:12.742Z,20.50
2018-10-21T19:56:42.369Z,19.13
2018-10-21T19:59:11.961Z,22.00
2018-10-21T20:01:41.568Z,18.67
2018-10-21T20:04:11.330Z,19.93
2018-10-21T20:06:40.913Z,20.07
2018-10-21T20:09:11.279Z,26.47
2018-10-21T20:11:41.585Z,24.23
2018-10-21T20:14:11.254Z,21.80
2018-10-21T20:16:40.881Z,32.97
2018-10-21T20:19:10.584Z,25.43
2018-10-21T20:21:40.264Z,27.13
2018-10-21T20:24:09.891Z,20.03
2018-10-21T20:26:39.517Z,21.60
2018-10-21T20:29:09.156Z,18.80
2018-10-21T20:31:39.085Z,19.70
2018-10-21T20:34:08.870Z,18.73
2018-10-21T20:36:38.529Z,23.30
2018-10-21T20:39:09.550Z,24.80
2018-10-21T20:41:39.638Z,21.60
2018-10-21T20:44:09.271Z,25.80
2018-10-21T20:46:38.904Z,22.50
2018-10-21T20:49:08.534Z,21.73
2018-10-21T20:51:38.336Z,22.73
2018-10-21T20:54:07.905Z,25.50
2018-10-21T20:56:37.577Z,24.30
2018-10-21T20:59:07.256Z,23.03
2018-10-21T21:01:36.914Z,27.20
2018-10-21T21:04:06.639Z,24.87
2018-10-21T21:06:36.284Z,28.57
2018-10-21T21:09:08.400Z,30.57
2018-10-21T21:11:38.393Z,28.63
2018-10-21T21:14:08.130Z,24.20
2018-10-21T21:16:37.751Z,30.73
2018-10-21T21:19:07.442Z,26.03
2018-10-21T21:21:37.047Z,25.37
2018-10-21T21:24:06.770Z,28.93
2018-10-21T21:26:36.421Z,23.90
2018-10-21T21:29:06.161Z,23.43
2018-10-21T21:31:35.825Z,24.73
2018-10-21T21:34:05.613Z,24.10
2018-10-21T21:36:35.221Z,20.87
2018-10-21T21:39:07.127Z,23.73
2018-10-21T21:41:36.774Z,29.10
2018-10-21T21:44:06.874Z,24.07
2018-10-21T21:46:36.933Z,27.57
2018-10-21T21:49:07.694Z,22.93
2018-10-21T21:51:37.476Z,26.80
2018-10-21T21:54:08.141Z,25.17
2018-10-21T21:56:37.780Z,24.73
2018-10-21T21:59:07.770Z,30.20
2018-10-21T22:01:37.509Z,27.77
2018-10-21T22:04:07.276Z,26.70
2018-10-21T22:06:37.323Z,26.50
2018-10-21T22:09:13.176Z,25.10
2018-10-21T22:11:42.817Z,27.43
2018-10-21T22:14:12.458Z,28.43
2018-10-21T22:16:42.116Z,30.50
2018-10-21T22:19:11.847Z,26.37
2018-10-21T22:21:41.503Z,25.83
2018-10-21T22:24:11.319Z,26.70
2018-10-21T22:26:40.873Z,28.33
2018-10-21T22:29:10.503Z,31.53
2018-10-21T22:31:40.230Z,29.03
2018-10-21T22:34:09.955Z,24.13
2018-10-21T22:36:39.602Z,26.23
2018-10-21T22:39:09.239Z,27.53
2018-10-21T22:41:38.887Z,26.10
2018-10-21T22:44:08.506Z,30.70
2018-10-21T22:46:38.309Z,25.10
2018-10-21T22:49:07.964Z,28.40
2018-10-21T22:51:37.653Z,24.93
2018-10-21T22:54:07.325Z,29.20
2018-10-21T22:56:36.952Z,26.20
2018-10-21T22:59:06.654Z,27.93
2018-10-21T23:01:36.325Z,30.10
2018-10-21T23:04:06.186Z,28.53
2018-10-21T23:06:35.825Z,31.80
2018-10-21T23:09:08.213Z,27.70
2018-10-21T23:11:37.899Z,28.13
2018-10-21T23:14:07.529Z,27.13
2018-10-21T23:16:37.168Z,28.83
2018-10-21T23:19:17.781Z,29.67
2018-10-21T23:21:47.402Z,27.00
2018-10-21T23:24:17.101Z,27.83
2018-10-21T23:26:46.770Z,30.27
2018-10-21T23:29:16.506Z,28.00
2018-10-21T23:31:46.150Z,29.63
2018-10-21T23:34:15.808Z,27.73
2018-10-21T23:36:45.457Z,25.63
2018-10-21T23:39:15.064Z,29.57
2018-10-21T23:41:44.772Z,22.17
2018-10-21T23:44:14.431Z,27.50
2018-10-21T23:46:44.095Z,31.23
2018-10-21T23:49:13.820Z,27.43
2018-10-21T23:51:43.448Z,28.60
2018-10-21T23:54:13.224Z,33.93
2018-10-21T23:56:42.815Z,31.60
2018-10-21T23:59:12.785Z,30.13
